Time;durP1;ratioP1;P1;durP2;ratioP2;P2;SDS_P1;SDS_P2;PMS_P1;PMS_P2;Temp;Humidity;BMP_temperature;BMP_pressure;BME280_temperature;BME280_humidity;BME280_pressure;Samples;Min_cycle;Max_cycle;Signal;HPM_P1;HPM_P2
2022/10/10 00:01:30;;;;;;;4.30;1.85;;;;;;;;;;5052737;28;20033;-76
2022/10/10 00:03:56;;;;;;;5.65;1.80;;;;;;;;;;5051646;28;20029;-77
2022/10/10 00:06:22;;;;;;;8.27;1.77;;;;;;;;;;5053132;28;20027;-77
2022/10/10 00:08:48;;;;;;;4.35;1.80;;;;;;;;;;5052900;28;20470;-77
2022/10/10 00:11:15;;;;;;;3.53;1.77;;;;;;;;;;5053136;28;20029;-76
2022/10/10 00:13:41;;;;;;;5.45;1.70;;;;;;;;;;5052702;28;20032;-76
2022/10/10 00:16:07;;;;;;;4.90;1.85;;;;;;;;;;5051577;28;20025;-77
2022/10/10 00:18:32;;;;;;;4.50;1.85;;;;;;;;;;5052734;28;20079;-77
2022/10/10 00:20:58;;;;;;;6.30;2.10;;;;;;;;;;5051552;28;20029;-76
2022/10/10 00:23:23;;;;;;;5.57;2.00;;;;;;;;;;5052804;28;20390;-76
2022/10/10 00:25:49;;;;;;;8.73;1.75;;;;;;;;;;5053136;28;20107;-76
2022/10/10 00:28:15;;;;;;;2.30;1.40;;;;;;;;;;5055587;28;20082;-76
2022/10/10 00:30:40;;;;;;;4.10;1.63;;;;;;;;;;5056625;28;20021;-76
2022/10/10 00:33:06;;;;;;;2.83;1.70;;;;;;;;;;5057057;28;20025;-76
2022/10/10 00:35:31;;;;;;;4.25;2.03;;;;;;;;;;5055233;28;20466;-75
2022/10/10 00:37:56;;;;;;;5.22;1.60;;;;;;;;;;5055147;28;20470;-75
2022/10/10 00:40:23;;;;;;;8.82;1.67;;;;;;;;;;5056682;28;20075;-76
2022/10/10 00:42:48;;;;;;;4.90;1.60;;;;;;;;;;5056389;28;20108;-76
2022/10/10 00:45:31;;;;;;;3.75;1.52;;;;;;;;;;5056504;28;20451;-76
2022/10/10 00:48:05;;;;;;;5.03;1.60;;;;;;;;;;5056588;28;20037;-77
2022/10/10 00:50:32;;;;;;;4.40;1.70;;;;;;;;;;5056527;28;20055;-75
2022/10/10 00:52:58;;;;;;;11.85;2.97;;;;;;;;;;5056455;28;20065;-75
2022/10/10 00:55:24;;;;;;;2.92;1.50;;;;;;;;;;5056181;28;20052;-75
2022/10/10 00:57:49;;;;;;;5.25;1.85;;;;;;;;;;5056458;28;20086;-76
2022/10/10 01:00:15;;;;;;;6.80;1.90;;;;;;;;;;5056040;28;20054;-75
2022/10/10 01:02:40;;;;;;;3.08;1.85;;;;;;;;;;5056595;28;20033;-75
2022/10/10 01:05:06;;;;;;;4.43;1.80;;;;;;;;;;5054664;28;20119;-76
2022/10/10 01:07:32;;;;;;;5.85;1.65;;;;;;;;;;5055883;28;20121;-76
2022/10/10 01:10:05;;;;;;;2.95;1.55;;;;;;;;;;5054654;28;20025;-76
2022/10/10 01:12:40;;;;;;;6.50;1.98;;;;;;;;;;5055759;28;20111;-76
2022/10/10 01:15:14;;;;;;;4.35;1.70;;;;;;;;;;5055888;28;20081;-76
2022/10/10 01:17:56;;;;;;;5.95;2.00;;;;;;;;;;5056010;28;20107;-76
2022/10/10 01:20:43;;;;;;;3.15;1.80;;;;;;;;;;5055979;28;20024;-76
2022/10/10 01:23:36;;;;;;;9.48;1.90;;;;;;;;;;5055837;28;20021;-76
2022/10/10 01:26:25;;;;;;;7.38;1.90;;;;;;;;;;5056325;28;20343;-76
2022/10/10 01:29:05;;;;;;;4.63;1.80;;;;;;;;;;5055792;28;20079;-76
2022/10/10 01:31:36;;;;;;;5.55;1.70;;;;;;;;;;5055682;28;20031;-76
2022/10/10 01:34:12;;;;;;;8.73;1.80;;;;;;;;;;5055683;28;20059;-76
2022/10/10 01:36:45;;;;;;;3.58;1.77;;;;;;;;;;5055721;28;20103;-76
2022/10/10 01:39:22;;;;;;;5.07;1.70;;;;;;;;;;5053432;28;20024;-75
2022/10/10 01:41:58;;;;;;;4.90;1.70;;;;;;;;;;5055339;28;20347;-76
2022/10/10 01:44:23;;;;;;;5.40;1.88;;;;;;;;;;5053864;28;20043;-76
2022/10/10 01:46:48;;;;;;;5.30;1.50;;;;;;;;;;5055230;28;20486;-77
2022/10/10 01:49:14;;;;;;;6.18;2.17;;;;;;;;;;5053858;28;20431;-76
2022/10/10 01:51:45;;;;;;;3.88;1.70;;;;;;;;;;5055165;28;20090;-76
2022/10/10 01:54:37;;;;;;;4.47;1.63;;;;;;;;;;5055083;28;20063;-77
2022/10/10 01:57:13;;;;;;;4.43;1.40;;;;;;;;;;5054462;28;20037;-76
2022/10/10 02:00:13;;;;;;;3.83;1.65;;;;;;;;;;5053654;28;20445;-76
2022/10/10 02:02:47;;;;;;;6.47;1.75;;;;;;;;;;5022209;28;20445;-76
2022/10/10 02:05:24;;;;;;;2.65;1.40;;;;;;;;;;5055067;28;20021;-76
2022/10/10 02:07:55;;;;;;;7.55;2.17;;;;;;;;;;5055127;28;20037;-76
2022/10/10 02:10:25;;;;;;;6.88;1.65;;;;;;;;;;5054957;28;20112;-77
2022/10/10 02:12:50;;;;;;;5.38;1.40;;;;;;;;;;5054655;28;20067;-76
2022/10/10 02:15:20;;;;;;;6.30;1.85;;;;;;;;;;5054665;28;20141;-77
2022/10/10 02:17:47;;;;;;;6.03;1.73;;;;;;;;;;5054845;28;20079;-76
2022/10/10 02:20:16;;;;;;;3.60;1.67;;;;;;;;;;5054449;28;20028;-76
2022/10/10 02:22:44;;;;;;;5.25;1.52;;;;;;;;;;5053195;28;20393;-76
2022/10/10 02:25:10;;;;;;;5.35;1.67;;;;;;;;;;5054488;28;20025;-77
2022/10/10 02:27:44;;;;;;;3.10;1.63;;;;;;;;;;5054362;28;20033;-76
2022/10/10 02:30:10;;;;;;;3.00;1.60;;;;;;;;;;5054550;28;20575;-76
2022/10/10 02:32:48;;;;;;;4.43;1.50;;;;;;;;;;5055898;28;20029;-77
2022/10/10 02:35:18;;;;;;;4.57;1.70;;;;;;;;;;5054547;28;20021;-76
2022/10/10 02:37:45;;;;;;;4.00;2.00;;;;;;;;;;5054548;28;20386;-77
2022/10/10 02:40:15;;;;;;;5.40;1.70;;;;;;;;;;5054076;28;20032;-76
2022/10/10 02:42:41;;;;;;;5.00;1.88;;;;;;;;;;5054418;28;20497;-76
2022/10/10 02:45:06;;;;;;;4.13;1.60;;;;;;;;;;5054105;28;20102;-76
2022/10/10 02:47:31;;;;;;;6.25;1.80;;;;;;;;;;5054007;28;20108;-77
2022/10/10 02:49:57;;;;;;;3.47;1.40;;;;;;;;;;5052397;28;20360;-76
2022/10/10 02:52:22;;;;;;;4.95;1.60;;;;;;;;;;5052006;28;20028;-76
2022/10/10 02:54:47;;;;;;;5.55;1.50;;;;;;;;;;5052583;28;20362;-77
2022/10/10 02:57:13;;;;;;;2.97;1.33;;;;;;;;;;5052906;28;20028;-77
2022/10/10 02:59:38;;;;;;;4.13;1.58;;;;;;;;;;5054185;28;20438;-76
2022/10/10 03:02:05;;;;;;;3.03;1.35;;;;;;;;;;5054273;28;20071;-77
2022/10/10 03:04:31;;;;;;;4.22;1.48;;;;;;;;;;5054044;28;20021;-76
2022/10/10 03:06:56;;;;;;;4.07;1.50;;;;;;;;;;5053947;28;20033;-75
2022/10/10 03:09:21;;;;;;;3.08;1.45;;;;;;;;;;5053719;28;20021;-76
2022/10/10 03:11:46;;;;;;;4.30;1.40;;;;;;;;;;5053616;28;20029;-76
2022/10/10 03:14:12;;;;;;;2.45;1.33;;;;;;;;;;5053734;28;20112;-77
2022/10/10 03:16:37;;;;;;;6.30;1.48;;;;;;;;;;5054288;28;20017;-77
2022/10/10 03:19:02;;;;;;;4.43;1.42;;;;;;;;;;5053515;28;20032;-77
2022/10/10 03:21:28;;;;;;;3.67;1.23;;;;;;;;;;5053346;28;20070;-76
2022/10/10 03:23:53;;;;;;;3.45;1.50;;;;;;;;;;5053384;28;20029;-77
2022/10/10 03:26:18;;;;;;;4.47;1.40;;;;;;;;;;5053452;28;20130;-76
2022/10/10 03:28:44;;;;;;;6.03;1.85;;;;;;;;;;5053743;28;20075;-75
2022/10/10 03:31:09;;;;;;;4.45;1.70;;;;;;;;;;5051949;28;20029;-77
2022/10/10 03:33:35;;;;;;;4.25;1.75;;;;;;;;;;5053290;28;20547;-75
2022/10/10 03:36:00;;;;;;;3.20;1.40;;;;;;;;;;5051894;28;20017;-76
2022/10/10 03:38:25;;;;;;;4.82;1.85;;;;;;;;;;5053473;28;20117;-76
2022/10/10 03:40:50;;;;;;;3.70;1.50;;;;;;;;;;5053266;28;20382;-77
2022/10/10 03:43:16;;;;;;;3.30;1.40;;;;;;;;;;5051944;28;20021;-77
2022/10/10 03:45:43;;;;;;;3.10;1.60;;;;;;;;;;5053025;28;20490;-76
2022/10/10 03:48:09;;;;;;;2.70;1.35;;;;;;;;;;5051965;28;20029;-76
2022/10/10 03:50:35;;;;;;;4.43;1.65;;;;;;;;;;5052182;28;20433;-78
2022/10/10 03:53:00;;;;;;;3.28;1.60;;;;;;;;;;5053465;28;20075;-77
2022/10/10 03:55:25;;;;;;;5.00;1.60;;;;;;;;;;5053042;28;20024;-77
2022/10/10 03:57:51;;;;;;;6.35;1.85;;;;;;;;;;5053361;28;20442;-76
2022/10/10 04:00:16;;;;;;;3.70;1.60;;;;;;;;;;5052863;28;20047;-76
2022/10/10 04:02:41;;;;;;;5.45;1.80;;;;;;;;;;5053767;28;20039;-76
2022/10/10 04:05:07;;;;;;;4.95;1.70;;;;;;;;;;5057162;28;20066;-76
2022/10/10 04:07:32;;;;;;;5.25;1.70;;;;;;;;;;5055830;28;20025;-76
2022/10/10 04:09:57;;;;;;;6.22;1.75;;;;;;;;;;5055822;28;20040;-76
2022/10/10 04:12:23;;;;;;;4.68;1.73;;;;;;;;;;5057412;28;20100;-76
2022/10/10 04:14:48;;;;;;;15.70;1.83;;;;;;;;;;5057315;28;20021;-76
2022/10/10 04:17:14;;;;;;;2.88;1.63;;;;;;;;;;5056942;28;20436;-76
2022/10/10 04:19:40;;;;;;;3.85;1.60;;;;;;;;;;5055739;28;20031;-76
2022/10/10 04:22:08;;;;;;;1.92;1.50;;;;;;;;;;5055509;28;20126;-76
2022/10/10 04:24:33;;;;;;;6.13;2.00;;;;;;;;;;5055352;28;20029;-76
2022/10/10 04:26:58;;;;;;;4.47;1.83;;;;;;;;;;5056843;28;20116;-76
2022/10/10 04:29:24;;;;;;;5.10;1.60;;;;;;;;;;5055459;28;20028;-77
2022/10/10 04:31:49;;;;;;;5.53;1.70;;;;;;;;;;5056790;28;20115;-77
2022/10/10 04:34:15;;;;;;;6.90;1.90;;;;;;;;;;5056657;28;20028;-77
2022/10/10 04:36:40;;;;;;;3.95;1.80;;;;;;;;;;5056690;28;20060;-76
2022/10/10 04:39:06;;;;;;;6.18;1.55;;;;;;;;;;5056603;28;20470;-76
2022/10/10 04:41:31;;;;;;;5.75;1.70;;;;;;;;;;5055404;28;20027;-76
2022/10/10 04:43:56;;;;;;;3.40;1.60;;;;;;;;;;5056556;28;20029;-75
2022/10/10 04:46:22;;;;;;;4.32;1.88;;;;;;;;;;5056531;28;20071;-76
2022/10/10 04:48:47;;;;;;;4.05;1.73;;;;;;;;;;5056601;28;20405;-77
2022/10/10 04:51:12;;;;;;;4.22;1.75;;;;;;;;;;5054850;28;20063;-76
2022/10/10 04:53:38;;;;;;;3.53;1.50;;;;;;;;;;5056393;28;20435;-76
2022/10/10 04:56:03;;;;;;;4.43;1.70;;;;;;;;;;5056131;28;20088;-76
2022/10/10 04:58:29;;;;;;;5.05;1.77;;;;;;;;;;5056287;28;20035;-76
2022/10/10 05:00:54;;;;;;;3.25;1.60;;;;;;;;;;5055821;28;20501;-76
2022/10/10 05:03:21;;;;;;;3.90;1.52;;;;;;;;;;5056026;28;20120;-76
2022/10/10 05:05:46;;;;;;;3.33;1.70;;;;;;;;;;5054609;28;20115;-76
2022/10/10 05:08:12;;;;;;;3.17;1.60;;;;;;;;;;5054608;28;20435;-75
2022/10/10 05:10:38;;;;;;;4.13;1.50;;;;;;;;;;5054504;28;20481;-76
2022/10/10 05:13:04;;;;;;;6.10;1.60;;;;;;;;;;5055273;28;20494;-75
2022/10/10 05:15:29;;;;;;;2.75;1.77;;;;;;;;;;5055047;28;20057;-76
2022/10/10 05:17:55;;;;;;;3.22;1.80;;;;;;;;;;5054405;28;20091;-76
2022/10/10 05:20:20;;;;;;;4.10;1.83;;;;;;;;;;5055531;28;20029;-76
2022/10/10 05:22:46;;;;;;;3.55;1.67;;;;;;;;;;5054601;28;20049;-77
2022/10/10 05:25:11;;;;;;;5.22;1.83;;;;;;;;;;5055924;28;20028;-77
2022/10/10 05:27:36;;;;;;;10.15;1.88;;;;;;;;;;5054598;28;20124;-76
2022/10/10 05:30:02;;;;;;;4.35;1.80;;;;;;;;;;5055988;28;20032;-77
2022/10/10 05:32:28;;;;;;;3.42;1.88;;;;;;;;;;5055263;28;20029;-76
2022/10/10 05:34:53;;;;;;;3.97;1.73;;;;;;;;;;5055493;28;20064;-76
2022/10/10 05:37:18;;;;;;;2.80;2.00;;;;;;;;;;5055304;28;20055;-76
2022/10/10 05:39:44;;;;;;;4.18;1.83;;;;;;;;;;5055286;28;20028;-76
2022/10/10 05:42:09;;;;;;;3.38;1.88;;;;;;;;;;5055260;28;20131;-76
2022/10/10 05:44:34;;;;;;;4.97;1.80;;;;;;;;;;5054992;28;20060;-76
2022/10/10 05:47:00;;;;;;;2.50;1.60;;;;;;;;;;5053929;28;20028;-76
2022/10/10 05:49:25;;;;;;;3.83;1.95;;;;;;;;;;5055538;28;20103;-76
2022/10/10 05:51:50;;;;;;;2.72;1.83;;;;;;;;;;5055310;28;20021;-77
2022/10/10 05:54:15;;;;;;;3.65;1.67;;;;;;;;;;5055339;28;20385;-77
2022/10/10 05:56:41;;;;;;;4.25;1.83;;;;;;;;;;5055261;28;20098;-76
2022/10/10 05:59:06;;;;;;;4.70;1.80;;;;;;;;;;5055029;28;20025;-76
2022/10/10 06:01:32;;;;;;;4.25;1.90;;;;;;;;;;5053430;28;20470;-76
2022/10/10 06:03:57;;;;;;;8.45;2.10;;;;;;;;;;5054836;28;20115;-76
2022/10/10 06:06:23;;;;;;;12.32;1.58;;;;;;;;;;5054894;28;20071;-76
2022/10/10 06:08:49;;;;;;;3.65;1.90;;;;;;;;;;5054899;28;20040;-76
2022/10/10 06:11:16;;;;;;;5.10;1.80;;;;;;;;;;5053319;28;20025;-77
2022/10/10 06:13:41;;;;;;;5.80;2.10;;;;;;;;;;5054643;28;20025;-76
2022/10/10 06:16:07;;;;;;;4.82;1.70;;;;;;;;;;5055051;28;20078;-77
2022/10/10 06:18:32;;;;;;;4.90;1.75;;;;;;;;;;5054484;28;20604;-77
2022/10/10 06:21:03;;;;;;;3.28;1.75;;;;;;;;;;5054349;28;20047;-75
2022/10/10 06:23:28;;;;;;;4.45;1.58;;;;;;;;;;5054492;28;20029;-76
2022/10/10 06:25:53;;;;;;;3.47;1.63;;;;;;;;;;5054392;28;20481;-75
2022/10/10 06:28:19;;;;;;;5.20;2.40;;;;;;;;;;5054917;28;20064;-77
2022/10/10 06:30:47;;;;;;;4.55;1.67;;;;;;;;;;5054307;28;20409;-76
2022/10/10 06:33:14;;;;;;;6.97;2.03;;;;;;;;;;5054277;28;20025;-76
2022/10/10 06:35:47;;;;;;;4.93;1.52;;;;;;;;;;5054635;28;20473;-76
2022/10/10 06:38:14;;;;;;;10.67;2.00;;;;;;;;;;5054832;28;20024;-76
2022/10/10 06:40:40;;;;;;;3.78;1.58;;;;;;;;;;5054083;28;20301;-76
2022/10/10 06:43:10;;;;;;;4.68;1.40;;;;;;;;;;5054084;28;20416;-76
2022/10/10 06:45:37;;;;;;;4.75;1.90;;;;;;;;;;5054183;28;20443;-77
2022/10/10 06:48:03;;;;;;;6.18;1.85;;;;;;;;;;5053763;28;20029;-76
2022/10/10 06:50:29;;;;;;;3.22;1.67;;;;;;;;;;5054097;28;20041;-77
2022/10/10 06:52:54;;;;;;;4.70;1.67;;;;;;;;;;5054148;28;20017;-77
2022/10/10 06:55:19;;;;;;;2.42;1.42;;;;;;;;;;5054304;28;20025;-77
2022/10/10 06:57:44;;;;;;;3.13;1.60;;;;;;;;;;5052328;28;20017;-76
2022/10/10 07:00:11;;;;;;;4.13;1.70;;;;;;;;;;5053397;28;20056;-75
2022/10/10 07:02:39;;;;;;;5.10;1.73;;;;;;;;;;5052477;28;20024;-76
2022/10/10 07:05:05;;;;;;;4.07;1.80;;;;;;;;;;5053524;28;20044;-76
2022/10/10 07:07:31;;;;;;;4.22;1.80;;;;;;;;;;5052228;28;20504;-76
2022/10/10 07:09:56;;;;;;;3.05;1.80;;;;;;;;;;5053658;28;20033;-77
2022/10/10 07:12:21;;;;;;;3.17;1.58;;;;;;;;;;5052166;28;20021;-75
2022/10/10 07:14:46;;;;;;;6.65;1.85;;;;;;;;;;5053463;28;20025;-76
2022/10/10 07:17:12;;;;;;;6.88;2.03;;;;;;;;;;5054059;28;20029;-76
2022/10/10 07:19:37;;;;;;;3.58;1.50;;;;;;;;;;5053402;28;20052;-75
2022/10/10 07:22:02;;;;;;;4.97;1.80;;;;;;;;;;5053492;28;20425;-76
2022/10/10 07:24:28;;;;;;;5.07;1.70;;;;;;;;;;5053387;28;20100;-75
2022/10/10 07:26:54;;;;;;;5.50;1.75;;;;;;;;;;5053137;28;20351;-77
2022/10/10 07:29:20;;;;;;;5.32;1.67;;;;;;;;;;5053338;28;20033;-76
2022/10/10 07:31:45;;;;;;;8.95;1.92;;;;;;;;;;5053067;28;20489;-76
2022/10/10 07:34:10;;;;;;;5.40;2.10;;;;;;;;;;5053093;28;20074;-76
2022/10/10 07:36:37;;;;;;;4.22;1.70;;;;;;;;;;5052447;28;20028;-77
2022/10/10 07:39:02;;;;;;;6.03;2.17;;;;;;;;;;5052990;28;20021;-76
2022/10/10 07:41:27;;;;;;;8.02;2.10;;;;;;;;;;5053006;28;20029;-77
2022/10/10 07:43:54;;;;;;;9.77;3.85;;;;;;;;;;5051638;28;20159;-77
2022/10/10 07:46:20;;;;;;;6.68;2.35;;;;;;;;;;5052833;28;20021;-76
2022/10/10 07:48:45;;;;;;;4.45;1.58;;;;;;;;;;5053228;28;20021;-76
2022/10/10 07:51:11;;;;;;;9.07;2.00;;;;;;;;;;5052850;28;20074;-76
2022/10/10 07:53:37;;;;;;;3.65;1.70;;;;;;;;;;5053110;28;20100;-76
2022/10/10 07:56:04;;;;;;;4.88;1.70;;;;;;;;;;5053063;28;20107;-76
2022/10/10 07:58:29;;;;;;;3.92;1.60;;;;;;;;;;5052963;28;20040;-77
2022/10/10 08:01:06;;;;;;;3.10;1.55;;;;;;;;;;5052533;28;20040;-76
2022/10/10 08:03:32;;;;;;;4.47;1.77;;;;;;;;;;5053443;28;20037;-76
2022/10/10 08:05:57;;;;;;;3.58;1.70;;;;;;;;;;5052721;28;20079;-76
2022/10/10 08:08:22;;;;;;;3.50;1.63;;;;;;;;;;5052807;28;20029;-76
2022/10/10 08:10:48;;;;;;;6.32;1.98;;;;;;;;;;5051404;28;20017;-76
2022/10/10 08:13:13;;;;;;;7.82;1.65;;;;;;;;;;5053236;28;20021;-77
2022/10/10 08:15:39;;;;;;;2.90;1.60;;;;;;;;;;5051530;28;20020;-76
2022/10/10 08:18:05;;;;;;;5.40;1.83;;;;;;;;;;5053011;28;20116;-75
2022/10/10 08:20:30;;;;;;;5.38;2.55;;;;;;;;;;5053253;28;20403;-76
2022/10/10 08:22:55;;;;;;;4.85;1.83;;;;;;;;;;5051268;28;20021;-76
2022/10/10 08:25:21;;;;;;;5.00;1.70;;;;;;;;;;5052787;28;20036;-76
2022/10/10 08:27:46;;;;;;;5.07;1.70;;;;;;;;;;5052563;28;20064;-77
2022/10/10 08:30:11;;;;;;;5.50;2.53;;;;;;;;;;5052548;28;20028;-75
2022/10/10 08:32:37;;;;;;;3.20;1.80;;;;;;;;;;5051303;28;20075;-76
2022/10/10 08:35:02;;;;;;;4.05;1.70;;;;;;;;;;5052776;28;20107;-75
2022/10/10 08:37:28;;;;;;;4.90;1.75;;;;;;;;;;5052707;28;20036;-76
2022/10/10 08:39:53;;;;;;;6.75;1.80;;;;;;;;;;5051236;28;20075;-75
2022/10/10 08:42:33;;;;;;;5.60;1.95;;;;;;;;;;5051127;28;20025;-75
2022/10/10 08:45:03;;;;;;;4.32;2.03;;;;;;;;;;5052823;28;20017;-76
2022/10/10 08:47:43;;;;;;;4.15;1.88;;;;;;;;;;5052365;28;20115;-76
2022/10/10 08:50:29;;;;;;;5.45;1.70;;;;;;;;;;5054811;28;20090;-76
2022/10/10 08:52:59;;;;;;;3.20;1.85;;;;;;;;;;5056085;28;20460;-75
2022/10/10 08:55:31;;;;;;;8.55;1.90;;;;;;;;;;5056271;28;20017;-76
2022/10/10 08:57:59;;;;;;;7.45;2.03;;;;;;;;;;5056857;28;20390;-76
2022/10/10 09:00:31;;;;;;;2.72;1.77;;;;;;;;;;5054522;28;20064;-75
2022/10/10 09:02:59;;;;;;;3.78;1.77;;;;;;;;;;5055961;28;20099;-76
2022/10/10 09:05:34;;;;;;;7.30;2.28;;;;;;;;;;5055797;28;20385;-75
2022/10/10 09:08:41;;;;;;;4.80;1.90;;;;;;;;;;5056037;28;20371;-75
2022/10/10 09:11:49;;;;;;;7.90;2.08;;;;;;;;;;5055152;28;20091;-76
2022/10/10 09:14:28;;;;;;;3.17;1.85;;;;;;;;;;5054534;28;20124;-76
2022/10/10 09:17:01;;;;;;;5.25;1.92;;;;;;;;;;5054409;28;20461;-76
2022/10/10 09:19:33;;;;;;;5.05;1.85;;;;;;;;;;5056040;28;20020;-76
2022/10/10 09:22:03;;;;;;;7.30;1.90;;;;;;;;;;5055559;28;20079;-75
2022/10/10 09:24:39;;;;;;;5.50;2.20;;;;;;;;;;5054785;28;20020;-76
2022/10/10 09:27:10;;;;;;;7.20;2.05;;;;;;;;;;5055722;28;20033;-76
2022/10/10 09:30:01;;;;;;;3.22;1.85;;;;;;;;;;5055468;28;20017;-76
2022/10/10 09:32:32;;;;;;;5.53;2.10;;;;;;;;;;5055459;28;20028;-75
2022/10/10 09:35:20;;;;;;;6.30;1.73;;;;;;;;;;5055696;28;20029;-76
2022/10/10 09:37:49;;;;;;;3.97;2.13;;;;;;;;;;5053976;28;20025;-76
2022/10/10 09:40:32;;;;;;;6.55;2.00;;;;;;;;;;5055647;28;20025;-76
2022/10/10 09:43:06;;;;;;;6.88;1.95;;;;;;;;;;5055555;28;20027;-74
2022/10/10 09:45:37;;;;;;;9.85;3.40;;;;;;;;;;5055153;28;20104;-75
2022/10/10 09:48:03;;;;;;;5.47;1.98;;;;;;;;;;5053868;28;20031;-76
2022/10/10 09:50:29;;;;;;;4.50;1.90;;;;;;;;;;5054773;28;20024;-76
2022/10/10 09:52:55;;;;;;;5.20;2.03;;;;;;;;;;5054936;28;20033;-76
2022/10/10 09:55:29;;;;;;;6.53;2.00;;;;;;;;;;5053639;28;20029;-76
2022/10/10 09:57:59;;;;;;;3.65;1.83;;;;;;;;;;5055292;28;20062;-75
2022/10/10 10:00:34;;;;;;;6.40;1.95;;;;;;;;;;5054061;28;20064;-76
2022/10/10 10:03:08;;;;;;;4.20;1.85;;;;;;;;;;5055130;28;20108;-75
2022/10/10 10:05:34;;;;;;;7.10;2.08;;;;;;;;;;5055023;28;20032;-76
2022/10/10 10:07:59;;;;;;;5.70;2.00;;;;;;;;;;5054687;28;20597;-75
2022/10/10 10:10:26;;;;;;;4.53;1.88;;;;;;;;;;5054706;28;20032;-76
2022/10/10 10:12:53;;;;;;;4.43;1.90;;;;;;;;;;5054935;28;20028;-76
2022/10/10 10:15:21;;;;;;;5.10;2.08;;;;;;;;;;5053424;28;20027;-76
2022/10/10 10:18:20;;;;;;;3.88;1.80;;;;;;;;;;5053309;28;20036;-75
2022/10/10 10:20:48;;;;;;;6.93;2.10;;;;;;;;;;5053133;28;20027;-76
2022/10/10 10:23:32;;;;;;;8.95;2.15;;;;;;;;;;5054391;28;20036;-75
2022/10/10 10:26:02;;;;;;;3.78;1.98;;;;;;;;;;5054469;28;20029;-76
2022/10/10 10:28:28;;;;;;;5.72;1.90;;;;;;;;;;5054468;28;20044;-76
2022/10/10 10:30:55;;;;;;;3.92;1.88;;;;;;;;;;5052960;28;20115;-76
2022/10/10 10:33:36;;;;;;;4.05;2.00;;;;;;;;;;5053110;28;20028;-76
2022/10/10 10:36:22;;;;;;;5.97;1.90;;;;;;;;;;5054271;28;20017;-76
2022/10/10 10:39:05;;;;;;;4.43;1.85;;;;;;;;;;5054464;28;20029;-76
2022/10/10 10:41:41;;;;;;;4.75;1.75;;;;;;;;;;5052841;28;20098;-76
2022/10/10 10:44:13;;;;;;;7.32;2.20;;;;;;;;;;5054520;28;20496;-75
2022/10/10 10:47:05;;;;;;;3.47;1.67;;;;;;;;;;5054435;28;20025;-77
2022/10/10 10:49:56;;;;;;;9.00;2.22;;;;;;;;;;5054277;28;20037;-76
2022/10/10 10:52:34;;;;;;;10.23;1.95;;;;;;;;;;5025295;28;20037;-76
2022/10/10 10:55:31;;;;;;;4.80;2.40;;;;;;;;;;5054126;28;20028;-76
2022/10/10 10:58:35;;;;;;;4.25;1.83;;;;;;;;;;5041623;28;20441;-77
2022/10/10 11:01:04;;;;;;;6.82;2.13;;;;;;;;;;5053607;28;20036;-76
2022/10/10 11:03:54;;;;;;;3.72;2.10;;;;;;;;;;5053790;28;20562;-76
2022/10/10 11:06:31;;;;;;;9.52;2.00;;;;;;;;;;5053576;28;20025;-77
2022/10/10 11:09:15;;;;;;;3.85;2.00;;;;;;;;;;5053690;28;20033;-77
2022/10/10 11:12:12;;;;;;;5.82;2.22;;;;;;;;;;5053188;28;20041;-76
2022/10/10 11:14:56;;;;;;;5.95;1.88;;;;;;;;;;5053841;28;20100;-76
2022/10/10 11:17:59;;;;;;;3.95;1.85;;;;;;;;;;5053580;28;20021;-77
2022/10/10 11:20:31;;;;;;;6.53;2.20;;;;;;;;;;5042671;28;20079;-76
2022/10/10 11:23:06;;;;;;;9.40;2.15;;;;;;;;;;5052069;28;20025;-77
2022/10/10 11:25:39;;;;;;;3.03;1.88;;;;;;;;;;5053555;28;20028;-76
2022/10/10 11:28:14;;;;;;;8.53;2.40;;;;;;;;;;5053568;28;20036;-74
2022/10/10 11:30:45;;;;;;;6.93;2.50;;;;;;;;;;5053338;28;20044;-77
2022/10/10 11:33:17;;;;;;;4.78;1.98;;;;;;;;;;5053450;28;20121;-76
2022/10/10 11:35:51;;;;;;;7.30;1.90;;;;;;;;;;5053407;28;20021;-76
2022/10/10 11:38:22;;;;;;;3.50;1.85;;;;;;;;;;5051928;28;20021;-75
2022/10/10 11:41:00;;;;;;;3.65;1.90;;;;;;;;;;5051808;28;20025;-77
2022/10/10 11:43:32;;;;;;;5.10;2.13;;;;;;;;;;5053054;28;20025;-76
2022/10/10 11:46:12;;;;;;;8.48;2.40;;;;;;;;;;5052986;28;20386;-76
2022/10/10 11:49:07;;;;;;;7.13;1.85;;;;;;;;;;5051765;28;20029;-76
2022/10/10 11:51:40;;;;;;;5.93;2.22;;;;;;;;;;5053413;28;20021;-76
2022/10/10 11:54:16;;;;;;;4.13;1.98;;;;;;;;;;5051743;28;20405;-77
2022/10/10 11:56:45;;;;;;;6.53;2.22;;;;;;;;;;5053020;28;20021;-77
2022/10/10 11:59:22;;;;;;;4.80;2.50;;;;;;;;;;5052966;28;20029;-76
2022/10/10 12:01:52;;;;;;;6.47;2.20;;;;;;;;;;5052614;28;20032;-76
2022/10/10 12:04:17;;;;;;;6.07;2.65;;;;;;;;;;5052789;28;20031;-76
2022/10/10 12:07:18;;;;;;;4.78;2.30;;;;;;;;;;5052925;28;20394;-77
2022/10/10 12:09:48;;;;;;;4.13;2.10;;;;;;;;;;5051363;28;20037;-76
2022/10/10 12:12:20;;;;;;;7.28;2.17;;;;;;;;;;5052892;28;20059;-76
2022/10/10 12:14:52;;;;;;;5.53;2.00;;;;;;;;;;5051492;28;20017;-76
2022/10/10 12:17:40;;;;;;;5.63;2.60;;;;;;;;;;5051499;28;20020;-77
2022/10/10 12:20:13;;;;;;;6.40;2.15;;;;;;;;;;5050807;28;20037;-77
2022/10/10 12:22:38;;;;;;;5.70;2.15;;;;;;;;;;5051569;28;20029;-76
2022/10/10 12:25:22;;;;;;;4.32;2.25;;;;;;;;;;5055321;28;20025;-76
2022/10/10 12:28:22;;;;;;;4.65;2.28;;;;;;;;;;5055500;28;20029;-76
2022/10/10 12:30:53;;;;;;;5.07;2.22;;;;;;;;;;5055325;28;20098;-76
2022/10/10 12:33:34;;;;;;;4.82;2.30;;;;;;;;;;5056696;28;20455;-75
2022/10/10 12:36:18;;;;;;;5.25;2.05;;;;;;;;;;5056598;28;20025;-75
2022/10/10 12:39:05;;;;;;;12.85;2.45;;;;;;;;;;5056552;28;20395;-76
2022/10/10 12:41:39;;;;;;;5.60;2.25;;;;;;;;;;5056394;28;20032;-77
2022/10/10 12:44:13;;;;;;;5.40;2.22;;;;;;;;;;5056504;28;20099;-76
2022/10/10 12:46:40;;;;;;;12.90;2.30;;;;;;;;;;5056311;28;20036;-76
2022/10/10 12:49:21;;;;;;;9.57;2.70;;;;;;;;;;5055028;28;20063;-76
2022/10/10 12:52:12;;;;;;;5.13;2.20;;;;;;;;;;5056044;28;20079;-76
2022/10/10 12:54:41;;;;;;;6.85;2.25;;;;;;;;;;5054905;28;20056;-77
2022/10/10 12:57:30;;;;;;;4.78;2.30;;;;;;;;;;5056070;28;20021;-76
2022/10/10 12:59:56;;;;;;;8.48;2.28;;;;;;;;;;5055913;28;20032;-76
2022/10/10 13:02:24;;;;;;;6.25;2.47;;;;;;;;;;5055830;28;20033;-76
2022/10/10 13:04:53;;;;;;;6.07;2.55;;;;;;;;;;5055823;28;20032;-76
2022/10/10 13:07:20;;;;;;;7.97;2.60;;;;;;;;;;5055871;28;20393;-76
2022/10/10 13:09:49;;;;;;;7.63;2.55;;;;;;;;;;5055753;28;20478;-76
2022/10/10 13:12:23;;;;;;;7.75;2.70;;;;;;;;;;5055795;28;20029;-76
2022/10/10 13:14:48;;;;;;;;;;;;;;;;;;5056258;28;20021;-76
2022/10/10 13:17:24;;;;;;;5.65;2.20;;;;;;;;;;5055967;28;19916;-76
2022/10/10 13:19:51;;;;;;;5.60;2.53;;;;;;;;;;5055582;28;20040;-76
2022/10/10 13:22:16;;;;;;;4.65;2.40;;;;;;;;;;5055571;28;20024;-75
2022/10/10 13:24:42;;;;;;;9.75;2.55;;;;;;;;;;5055496;28;20493;-76
2022/10/10 13:27:17;;;;;;;5.93;2.35;;;;;;;;;;5055321;28;20028;-76
2022/10/10 13:29:42;;;;;;;8.77;2.35;;;;;;;;;;5055327;28;20371;-75
2022/10/10 13:32:14;;;;;;;8.13;2.40;;;;;;;;;;5055488;28;20025;-76
2022/10/10 13:34:48;;;;;;;12.70;2.55;;;;;;;;;;5053094;28;20055;-76
2022/10/10 13:37:15;;;;;;;;;;;;;;;;;;5054280;28;20028;-75
2022/10/10 13:39:40;;;;;;;14.80;2.40;;;;;;;;;;5055229;28;19913;-76
2022/10/10 13:42:25;;;;;;;5.55;2.28;;;;;;;;;;5055394;28;20033;-76
2022/10/10 13:44:53;;;;;;;5.13;2.33;;;;;;;;;;5055105;28;20036;-76
2022/10/10 13:47:54;;;;;;;6.05;2.63;;;;;;;;;;5055211;28;20033;-76
2022/10/10 13:50:48;;;;;;;8.85;2.00;;;;;;;;;;5054932;28;20154;-76
2022/10/10 13:53:31;;;;;;;8.13;2.20;;;;;;;;;;5053479;28;20381;-77
2022/10/10 13:56:06;;;;;;;4.78;2.25;;;;;;;;;;5055186;28;20013;-77
2022/10/10 13:58:42;;;;;;;5.35;2.28;;;;;;;;;;5055203;28;20021;-77
2022/10/10 14:01:24;;;;;;;6.68;2.60;;;;;;;;;;5054819;28;20101;-76
2022/10/10 14:03:50;;;;;;;4.97;2.50;;;;;;;;;;5054865;28;20021;-76
2022/10/10 14:06:18;;;;;;;6.22;2.40;;;;;;;;;;5054761;28;20032;-77
2022/10/10 14:08:44;;;;;;;7.80;2.88;;;;;;;;;;5053473;28;20116;-76
2022/10/10 14:11:16;;;;;;;10.73;2.63;;;;;;;;;;5054900;28;20490;-76
2022/10/10 14:13:48;;;;;;;10.30;2.80;;;;;;;;;;5055043;28;20052;-76
2022/10/10 14:16:14;;;;;;;5.05;2.10;;;;;;;;;;5054908;28;20021;-77
2022/10/10 14:18:39;;;;;;;7.30;2.50;;;;;;;;;;5054637;28;20033;-76
2022/10/10 14:21:04;;;;;;;5.57;2.50;;;;;;;;;;5053108;28;20266;-77
2022/10/10 14:23:29;;;;;;;5.20;2.42;;;;;;;;;;5053294;28;20074;-77
2022/10/10 14:25:56;;;;;;;5.47;2.67;;;;;;;;;;5053043;28;20104;-77
2022/10/10 14:28:25;;;;;;;6.32;2.60;;;;;;;;;;5054744;28;20033;-75
2022/10/10 14:30:51;;;;;;;11.25;2.67;;;;;;;;;;5054259;28;20025;-76
2022/10/10 14:33:18;;;;;;;7.93;2.70;;;;;;;;;;5054341;28;20501;-76
2022/10/10 14:35:44;;;;;;;6.45;2.53;;;;;;;;;;5054475;28;20577;-76
2022/10/10 14:38:10;;;;;;;11.43;3.10;;;;;;;;;;5054332;28;20033;-76
2022/10/10 14:40:36;;;;;;;5.93;2.65;;;;;;;;;;5054041;28;20036;-75
2022/10/10 14:43:01;;;;;;;6.88;2.70;;;;;;;;;;5054107;28;20048;-75
2022/10/10 14:45:27;;;;;;;8.23;3.13;;;;;;;;;;5053888;28;20040;-76
2022/10/10 14:47:52;;;;;;;5.47;2.75;;;;;;;;;;5053969;28;20044;-76
2022/10/10 14:50:21;;;;;;;5.70;2.67;;;;;;;;;;5052594;28;20017;-76
2022/10/10 14:52:46;;;;;;;5.43;2.70;;;;;;;;;;5053843;28;20021;-76
2022/10/10 14:55:11;;;;;;;8.63;2.85;;;;;;;;;;5052588;28;20024;-76
2022/10/10 14:57:37;;;;;;;6.75;2.90;;;;;;;;;;5052416;28;20025;-76
2022/10/10 15:00:12;;;;;;;5.53;2.92;;;;;;;;;;5053519;28;20044;-76
2022/10/10 15:02:37;;;;;;;9.90;3.08;;;;;;;;;;5052676;28;20039;-76